createdAt,value
2023-05-05T00:01:41.333Z,48.39
2023-05-05T00:04:11.574Z,48.76
2023-05-05T00:06:41.806Z,48.80
2023-05-05T00:09:11.894Z,48.57
2023-05-05T00:11:41.987Z,48.56
2023-05-05T00:14:12.178Z,48.45
2023-05-05T00:16:42.575Z,48.19
2023-05-05T00:19:12.849Z,48.08
2023-05-05T00:21:43.028Z,47.97
2023-05-05T00:24:13.115Z,48.12
2023-05-05T00:26:43.241Z,48.48
2023-05-05T00:29:13.351Z,48.52
2023-05-05T00:31:43.568Z,47.87
2023-05-05T00:34:13.718Z,47.93
2023-05-05T00:36:43.989Z,48.16
2023-05-05T00:39:14.410Z,48.24
2023-05-05T00:41:44.612Z,47.86
2023-05-05T00:44:15.839Z,47.92
2023-05-05T00:46:46.158Z,48.34
2023-05-05T00:49:16.586Z,48.21
2023-05-05T00:51:46.825Z,48.49
2023-05-05T00:54:17.180Z,47.98
2023-05-05T00:56:48.312Z,48.41
2023-05-05T00:59:18.576Z,48.60
2023-05-05T01:01:48.763Z,48.21
2023-05-05T01:04:19.003Z,47.98
2023-05-05T01:07:12.518Z,50.02
2023-05-05T01:10:15.142Z,49.40
2023-05-05T01:13:03.882Z,49.60
2023-05-05T01:15:41.832Z,49.29
2023-05-05T01:18:14.118Z,48.18
2023-05-05T01:21:10.232Z,49.43
2023-05-05T01:24:05.117Z,50.04
2023-05-05T01:26:35.277Z,48.13
2023-05-05T01:29:11.110Z,49.48
2023-05-05T01:31:55.275Z,49.69
2023-05-05T01:34:34.728Z,48.65
2023-05-05T01:37:12.715Z,48.57
2023-05-05T01:39:45.743Z,48.40
2023-05-05T01:42:18.768Z,47.90
2023-05-05T01:44:50.053Z,47.95
2023-05-05T01:47:22.454Z,48.45
2023-05-05T01:49:52.993Z,48.02
2023-05-05T01:52:24.517Z,47.86
2023-05-05T01:54:56.793Z,47.88
2023-05-05T01:57:31.462Z,48.70
2023-05-05T02:00:04.759Z,48.41
2023-05-05T02:02:36.307Z,48.14
2023-05-05T02:05:07.432Z,48.21
2023-05-05T02:07:38.537Z,48.33
2023-05-05T02:10:10.670Z,48.39
2023-05-05T02:12:43.124Z,48.36
2023-05-05T02:15:15.326Z,48.30
2023-05-05T02:17:47.399Z,48.41
2023-05-05T02:20:19.331Z,48.50
2023-05-05T02:22:49.712Z,48.08
2023-05-05T02:25:20.433Z,48.03
2023-05-05T02:27:56.815Z,48.54
2023-05-05T02:30:29.168Z,47.92
2023-05-05T02:33:07.622Z,49.39
2023-05-05T02:35:42.342Z,48.91
2023-05-05T02:38:17.968Z,49.40
2023-05-05T02:40:51.000Z,48.82
2023-05-05T02:43:24.251Z,48.42
2023-05-05T02:45:54.534Z,48.44
2023-05-05T02:48:24.725Z,48.52
2023-05-05T02:50:54.868Z,48.89
2023-05-05T02:53:27.017Z,48.80
2023-05-05T02:56:16.865Z,50.38
2023-05-05T02:59:16.362Z,50.88
2023-05-05T03:01:54.931Z,49.66
2023-05-05T03:04:37.594Z,50.34
2023-05-05T03:07:14.508Z,49.66
2023-05-05T03:09:55.964Z,49.06
2023-05-05T03:12:30.638Z,49.20
2023-05-05T03:15:02.478Z,48.65
2023-05-05T03:17:34.000Z,49.04
2023-05-05T03:20:07.653Z,49.52
2023-05-05T03:22:38.060Z,49.39
2023-05-05T03:25:08.720Z,49.13
2023-05-05T03:27:38.841Z,49.11
2023-05-05T03:30:09.820Z,49.32
2023-05-05T03:32:40.309Z,49.13
2023-05-05T03:35:10.451Z,49.20
2023-05-05T03:37:40.678Z,49.17
2023-05-05T03:40:11.259Z,49.12
2023-05-05T03:42:41.977Z,48.94
2023-05-05T03:45:13.026Z,48.74
2023-05-05T03:47:43.410Z,48.68
2023-05-05T03:50:13.675Z,48.55
2023-05-05T03:52:43.844Z,48.50
2023-05-05T03:55:13.954Z,48.87
2023-05-05T03:57:46.100Z,48.59
2023-05-05T04:00:16.627Z,48.36
2023-05-05T04:02:46.864Z,48.20
2023-05-05T04:05:17.062Z,48.08
2023-05-05T04:07:47.212Z,48.01
2023-05-05T04:10:17.383Z,47.66
2023-05-05T04:12:47.442Z,47.69
2023-05-05T04:15:17.668Z,47.66
2023-05-05T04:20:26.632Z,47.17
2023-05-05T04:22:56.748Z,46.78
2023-05-05T04:25:26.926Z,46.87
2023-05-05T04:27:57.084Z,46.60
2023-05-05T04:30:27.229Z,46.40
2023-05-05T04:32:57.344Z,46.16
2023-05-05T04:35:27.476Z,46.24
2023-05-05T04:37:57.629Z,45.55
2023-05-05T04:40:27.764Z,45.50
2023-05-05T04:42:58.324Z,45.49
2023-05-05T04:45:28.415Z,45.71
2023-05-05T04:47:58.687Z,45.29
2023-05-05T04:50:28.829Z,44.73
2023-05-05T04:52:59.053Z,44.72
2023-05-05T04:55:29.321Z,44.79
2023-05-05T04:57:59.570Z,44.93
2023-05-05T05:00:29.843Z,44.53
2023-05-05T05:03:01.171Z,44.24
2023-05-05T05:05:31.365Z,44.20
2023-05-05T05:08:01.506Z,43.97
2023-05-05T05:10:31.765Z,43.93
2023-05-05T05:13:02.371Z,44.12
2023-05-05T05:15:32.635Z,44.35
2023-05-05T05:18:02.879Z,44.07
2023-05-05T05:20:33.162Z,43.77
2023-05-05T05:23:04.641Z,44.00
2023-05-05T05:25:34.776Z,43.74
2023-05-05T05:28:09.441Z,43.57
2023-05-05T05:30:40.241Z,43.41
2023-05-05T05:33:11.728Z,43.70
2023-05-05T05:35:41.873Z,43.36
2023-05-05T05:38:12.051Z,43.42
2023-05-05T05:40:42.504Z,43.34
2023-05-05T05:43:12.866Z,43.07
2023-05-05T05:45:43.454Z,43.37
2023-05-05T05:48:13.648Z,42.81
2023-05-05T05:50:47.029Z,43.15
2023-05-05T05:53:18.109Z,43.12
2023-05-05T05:55:48.390Z,42.30
2023-05-05T05:58:18.654Z,42.58
2023-05-05T06:00:49.310Z,42.52
2023-05-05T06:03:19.573Z,42.42
2023-05-05T06:05:50.681Z,42.40
2023-05-05T06:08:21.671Z,42.44
2023-05-05T06:10:53.014Z,42.02
2023-05-05T06:13:23.310Z,42.05
2023-05-05T06:15:53.437Z,41.98
2023-05-05T06:18:23.726Z,42.35
2023-05-05T06:20:53.852Z,42.22
2023-05-05T06:23:24.658Z,42.18
2023-05-05T06:25:55.819Z,41.68
2023-05-05T06:28:26.170Z,41.61
2023-05-05T06:30:56.675Z,41.73
2023-05-05T06:33:26.957Z,41.70
2023-05-05T06:35:57.100Z,41.96
2023-05-05T06:38:27.183Z,41.47
2023-05-05T06:40:58.695Z,41.67
2023-05-05T06:43:29.747Z,40.96
2023-05-05T06:45:59.955Z,41.50
2023-05-05T06:48:30.099Z,41.46
2023-05-05T06:51:00.304Z,41.09
2023-05-05T06:53:30.509Z,40.61
2023-05-05T06:56:00.670Z,40.88
2023-05-05T06:58:31.902Z,40.62
2023-05-05T07:01:02.239Z,40.98
2023-05-05T07:03:32.509Z,40.64
2023-05-05T07:06:03.806Z,40.41
2023-05-05T07:08:33.935Z,40.21
2023-05-05T07:11:04.164Z,40.21
2023-05-05T07:13:34.235Z,39.85
2023-05-05T07:16:05.112Z,39.58
2023-05-05T07:18:35.309Z,39.68
2023-05-05T07:21:06.823Z,39.46
2023-05-05T07:23:38.097Z,39.37
2023-05-05T07:26:08.498Z,39.06
2023-05-05T07:28:38.736Z,39.19
2023-05-05T07:31:09.203Z,39.12
2023-05-05T07:33:39.333Z,38.72
2023-05-05T07:36:09.497Z,38.19
2023-05-05T07:38:39.865Z,38.33
2023-05-05T07:41:13.150Z,38.08
2023-05-05T07:43:44.612Z,38.30
2023-05-05T07:46:15.608Z,38.12
2023-05-05T07:48:46.024Z,37.95
2023-05-05T07:51:16.373Z,37.34
2023-05-05T07:53:46.563Z,37.15
2023-05-05T07:56:16.707Z,37.45
2023-05-05T07:58:46.932Z,37.40
2023-05-05T08:01:17.141Z,37.49
2023-05-05T08:03:47.473Z,37.62
2023-05-05T08:06:22.339Z,37.59
2023-05-05T08:08:53.586Z,37.25
2023-05-05T08:11:23.907Z,37.37
2023-05-05T08:13:54.022Z,37.48
2023-05-05T08:16:24.438Z,37.13
2023-05-05T08:18:54.599Z,36.86
2023-05-05T08:21:24.847Z,36.69
2023-05-05T08:23:55.065Z,36.76
2023-05-05T08:26:25.333Z,36.44
2023-05-05T08:29:02.744Z,36.14
2023-05-05T08:31:34.222Z,36.22
2023-05-05T08:34:07.729Z,36.11
2023-05-05T08:36:38.008Z,36.05
2023-05-05T08:39:08.735Z,35.78
2023-05-05T08:41:40.655Z,35.53
2023-05-05T08:44:13.537Z,35.42
2023-05-05T08:46:44.105Z,35.81
2023-05-05T08:49:16.570Z,35.77
2023-05-05T08:51:47.624Z,35.26
2023-05-05T08:54:27.055Z,33.22
2023-05-05T08:57:02.286Z,34.45
2023-05-05T08:59:33.578Z,34.69
2023-05-05T09:02:05.525Z,34.68
2023-05-05T09:04:36.535Z,34.59
2023-05-05T09:07:07.004Z,34.83
2023-05-05T09:09:38.623Z,34.59
2023-05-05T09:12:08.847Z,34.57
2023-05-05T09:17:29.047Z,34.16
2023-05-05T09:20:07.960Z,32.97
2023-05-05T09:22:39.308Z,33.90
2023-05-05T09:25:12.226Z,33.93
2023-05-05T09:27:47.364Z,33.21
2023-05-05T09:30:23.837Z,33.58
2023-05-05T09:32:54.844Z,31.57
2023-05-05T09:35:25.947Z,34.16
2023-05-05T09:37:56.059Z,33.69
2023-05-05T09:40:26.309Z,33.71
2023-05-05T09:43:02.653Z,32.97
2023-05-05T09:45:32.785Z,33.48
2023-05-05T09:48:02.999Z,32.59
2023-05-05T09:50:44.020Z,31.85
2023-05-05T09:53:14.505Z,33.25
2023-05-05T09:56:01.679Z,31.13
2023-05-05T09:58:32.104Z,32.98
2023-05-05T10:01:02.254Z,33.09
2023-05-05T10:03:33.429Z,32.82
2023-05-05T10:06:04.803Z,32.56
2023-05-05T10:08:35.032Z,32.26
2023-05-05T10:11:07.093Z,32.39
2023-05-05T10:13:41.187Z,32.44
2023-05-05T10:16:13.380Z,32.59
2023-05-05T10:18:46.912Z,32.42
2023-05-05T10:21:20.756Z,32.76
2023-05-05T10:24:22.828Z,31.84
2023-05-05T10:26:54.364Z,33.37
2023-05-05T10:29:28.582Z,32.80
2023-05-05T10:32:21.418Z,32.94
2023-05-05T10:35:02.913Z,32.50
2023-05-05T10:37:33.866Z,32.91
2023-05-05T10:40:05.321Z,33.23
2023-05-05T10:42:39.695Z,32.97
2023-05-05T10:45:10.264Z,33.02
2023-05-05T10:47:40.924Z,32.98
2023-05-05T10:50:28.159Z,32.67
2023-05-05T10:53:36.056Z,32.20
2023-05-05T10:56:09.989Z,32.70
2023-05-05T10:58:58.228Z,32.75
2023-05-05T11:01:34.693Z,32.11
2023-05-05T11:04:21.829Z,31.88
2023-05-05T11:07:18.666Z,30.89
2023-05-05T11:10:15.999Z,30.96
2023-05-05T11:12:52.709Z,31.94
2023-05-05T11:15:29.250Z,31.76
2023-05-05T11:18:05.799Z,32.45
2023-05-05T11:20:37.288Z,32.17
2023-05-05T11:23:07.546Z,32.43
2023-05-05T11:25:38.983Z,32.33
2023-05-05T11:28:10.881Z,32.03
2023-05-05T11:30:59.501Z,31.80
2023-05-05T11:33:32.145Z,32.09
2023-05-05T11:36:08.966Z,31.54
2023-05-05T11:38:39.073Z,32.40
2023-05-05T11:41:33.618Z,31.51
2023-05-05T11:44:17.646Z,31.32
2023-05-05T11:46:50.830Z,32.17
2023-05-05T11:49:27.739Z,32.09
2023-05-05T11:51:59.448Z,32.85
2023-05-05T11:54:30.645Z,32.80
2023-05-05T11:57:08.670Z,32.93
2023-05-05T11:59:57.693Z,31.79
2023-05-05T12:02:29.972Z,32.62
2023-05-05T12:05:01.066Z,32.47
2023-05-05T12:07:33.556Z,31.98
2023-05-05T12:10:04.006Z,32.44
2023-05-05T12:12:40.201Z,32.60
2023-05-05T12:15:10.552Z,31.30
2023-05-05T12:17:45.115Z,32.08
2023-05-05T12:20:15.590Z,31.60
2023-05-05T12:22:45.848Z,30.52
2023-05-05T12:25:16.386Z,29.68
2023-05-05T12:27:55.685Z,28.96
2023-05-05T12:30:25.980Z,29.98
2023-05-05T12:33:04.081Z,28.34
2023-05-05T12:35:35.200Z,30.10
2023-05-05T12:38:05.490Z,29.96
2023-05-05T12:41:02.830Z,25.73
2023-05-05T12:43:34.883Z,29.34
2023-05-05T12:46:10.747Z,27.22
2023-05-05T12:48:45.700Z,28.66
2023-05-05T12:51:23.646Z,28.15
2023-05-05T12:54:10.368Z,22.54
2023-05-05T12:56:45.674Z,27.52
2023-05-05T12:59:21.845Z,23.18
2023-05-05T13:01:54.198Z,26.08
2023-05-05T13:04:27.514Z,25.34
2023-05-05T13:07:14.941Z,19.91
2023-05-05T13:09:45.481Z,24.76
2023-05-05T13:12:19.013Z,21.88
2023-05-05T13:14:49.201Z,23.04
2023-05-05T13:17:19.486Z,22.45
2023-05-05T13:19:49.791Z,22.47
2023-05-05T13:22:20.056Z,22.22
2023-05-05T13:24:52.792Z,21.71
2023-05-05T13:27:23.878Z,21.05
2023-05-05T13:29:57.324Z,21.46
2023-05-05T13:32:29.224Z,21.17
2023-05-05T13:34:59.725Z,21.72
2023-05-05T13:37:31.891Z,21.27
2023-05-05T13:40:07.833Z,21.15
2023-05-05T13:42:41.611Z,21.65
2023-05-05T13:45:12.631Z,21.51
2023-05-05T13:47:45.867Z,21.40
2023-05-05T13:50:17.218Z,21.32
2023-05-05T13:52:47.794Z,21.12
2023-05-05T13:55:18.912Z,20.42
2023-05-05T13:57:52.388Z,20.12
2023-05-05T14:00:23.717Z,19.68
2023-05-05T14:02:54.850Z,19.89
2023-05-05T14:05:26.403Z,19.87
2023-05-05T14:07:56.963Z,20.08
2023-05-05T14:10:30.365Z,19.61
2023-05-05T14:13:00.994Z,20.02
2023-05-05T14:15:32.151Z,19.24
2023-05-05T14:18:02.879Z,19.18
2023-05-05T14:20:34.553Z,18.65
2023-05-05T14:23:04.902Z,18.87
2023-05-05T14:25:35.865Z,17.62
2023-05-05T14:28:07.021Z,18.04
2023-05-05T14:30:37.647Z,17.71
2023-05-05T14:33:08.154Z,18.12
2023-05-05T14:35:38.735Z,17.58
2023-05-05T14:38:10.477Z,17.55
2023-05-05T14:40:40.906Z,17.41
2023-05-05T14:43:12.653Z,17.40
2023-05-05T14:45:44.666Z,18.23
2023-05-05T14:48:17.305Z,18.31
2023-05-05T14:50:49.016Z,18.13
2023-05-05T14:53:19.858Z,17.90
2023-05-05T14:55:50.478Z,18.30
2023-05-05T14:58:22.601Z,18.75
2023-05-05T15:00:54.802Z,18.87
2023-05-05T15:03:25.470Z,19.19
2023-05-05T15:05:57.154Z,19.58
2023-05-05T15:08:27.616Z,19.63
2023-05-05T15:10:58.311Z,20.07
2023-05-05T15:13:30.203Z,20.67
2023-05-05T15:16:06.086Z,20.99
2023-05-05T15:18:36.577Z,21.74
2023-05-05T15:21:06.802Z,21.95
2023-05-05T15:23:37.230Z,22.14
2023-05-05T15:26:07.379Z,22.32
2023-05-05T15:28:38.130Z,22.79
2023-05-05T15:31:11.469Z,23.00
2023-05-05T15:33:42.752Z,23.69
2023-05-05T15:36:13.303Z,23.93
2023-05-05T15:38:43.994Z,24.01
2023-05-05T15:41:14.512Z,24.29
2023-05-05T15:43:44.970Z,24.56
2023-05-05T15:46:16.134Z,24.59
2023-05-05T15:48:46.935Z,25.17
2023-05-05T15:51:17.592Z,25.62
2023-05-05T15:53:48.384Z,25.47
2023-05-05T15:56:18.959Z,25.83
2023-05-05T15:58:51.688Z,25.89
2023-05-05T16:01:22.432Z,26.15
2023-05-05T16:03:53.048Z,26.34
2023-05-05T16:06:23.817Z,26.53
2023-05-05T16:08:54.047Z,26.61
2023-05-05T16:11:26.495Z,26.74
2023-05-05T16:13:57.266Z,26.85
2023-05-05T16:16:27.852Z,27.46
2023-05-05T16:18:59.315Z,27.23
2023-05-05T16:21:30.494Z,27.68
2023-05-05T16:24:01.528Z,27.87
2023-05-05T16:26:33.369Z,28.36
2023-05-05T16:29:04.312Z,28.65
2023-05-05T16:31:35.741Z,28.57
2023-05-05T16:34:06.382Z,28.82
2023-05-05T16:36:37.738Z,29.02
2023-05-05T16:39:08.163Z,29.21
2023-05-05T16:41:38.362Z,29.22
2023-05-05T16:44:08.641Z,29.37
2023-05-05T16:46:40.228Z,29.62
2023-05-05T16:49:10.488Z,29.61
2023-05-05T16:51:40.972Z,30.30
2023-05-05T16:54:11.158Z,30.39
2023-05-05T16:56:41.357Z,30.57
2023-05-05T16:59:11.669Z,30.70
2023-05-05T17:01:43.525Z,30.68
2023-05-05T17:04:13.865Z,30.95
2023-05-05T17:06:44.067Z,31.12
2023-05-05T17:09:14.279Z,31.35
2023-05-05T17:11:44.512Z,31.35
2023-05-05T17:14:14.695Z,31.28
2023-05-05T17:16:44.933Z,31.48
2023-05-05T17:19:15.193Z,31.38
2023-05-05T17:21:45.488Z,31.73
2023-05-05T17:24:15.743Z,31.88
2023-05-05T17:26:45.951Z,31.96
2023-05-05T17:29:19.931Z,32.11
2023-05-05T17:31:50.864Z,32.04
2023-05-05T17:34:21.170Z,32.22
2023-05-05T17:36:51.281Z,32.27
2023-05-05T17:39:21.376Z,32.34
2023-05-05T17:41:51.870Z,32.32
2023-05-05T17:44:22.114Z,32.28
2023-05-05T17:46:52.336Z,32.13
2023-05-05T17:49:22.783Z,32.36
2023-05-05T17:51:52.879Z,32.28
2023-05-05T17:54:23.047Z,32.12
2023-05-05T17:56:53.404Z,32.45
2023-05-05T17:59:23.682Z,32.65
2023-05-05T18:01:53.749Z,32.39
2023-05-05T18:04:24.121Z,32.95
2023-05-05T18:06:57.223Z,32.48
2023-05-05T18:09:27.556Z,32.97
2023-05-05T18:11:57.844Z,33.08
2023-05-05T18:14:28.042Z,32.91
2023-05-05T18:16:58.201Z,32.85
2023-05-05T18:19:28.467Z,33.03
2023-05-05T18:21:59.204Z,33.39
2023-05-05T18:24:29.649Z,33.70
2023-05-05T18:26:59.828Z,33.69
2023-05-05T18:29:29.947Z,33.72
2023-05-05T18:32:00.253Z,34.49
2023-05-05T18:34:30.517Z,34.29
2023-05-05T18:37:00.730Z,34.12
2023-05-05T18:39:30.930Z,33.82
2023-05-05T18:42:04.044Z,34.08
2023-05-05T18:44:35.123Z,34.16
2023-05-05T18:47:05.338Z,34.33
2023-05-05T18:49:35.529Z,34.52
2023-05-05T18:52:05.673Z,34.50
2023-05-05T18:54:37.821Z,34.78
2023-05-05T18:57:08.280Z,35.05
2023-05-05T18:59:38.495Z,34.98
2023-05-05T19:02:08.775Z,35.33
2023-05-05T19:04:41.478Z,35.27
2023-05-05T19:07:18.410Z,35.33
2023-05-05T19:09:54.157Z,35.75
2023-05-05T19:12:24.296Z,35.49
2023-05-05T19:14:54.500Z,35.91
2023-05-05T19:17:24.802Z,35.90
2023-05-05T19:19:54.985Z,35.76
2023-05-05T19:22:25.616Z,35.94
2023-05-05T19:24:55.833Z,36.06
2023-05-05T19:27:26.078Z,36.32
2023-05-05T19:29:56.298Z,36.04
2023-05-05T19:32:26.944Z,36.15
2023-05-05T19:34:57.081Z,36.63
2023-05-05T19:37:27.638Z,36.44
2023-05-05T19:39:57.691Z,36.35
2023-05-05T19:42:28.767Z,36.79
2023-05-05T19:44:58.944Z,36.72
2023-05-05T19:47:29.081Z,36.88
2023-05-05T19:49:59.339Z,36.91
2023-05-05T19:52:29.491Z,37.08
2023-05-05T19:54:59.653Z,36.98
2023-05-05T19:57:32.670Z,37.54
2023-05-05T20:00:04.048Z,37.37
2023-05-05T20:02:43.260Z,38.36
2023-05-05T20:05:20.237Z,38.11
2023-05-05T20:07:53.665Z,37.33
2023-05-05T20:10:31.045Z,37.51
2023-05-05T20:13:04.918Z,37.58
2023-05-05T20:15:37.960Z,37.81
2023-05-05T20:18:13.537Z,37.97
2023-05-05T20:20:43.737Z,38.19
2023-05-05T20:23:13.899Z,37.95
2023-05-05T20:25:44.201Z,38.00
2023-05-05T20:28:14.317Z,38.37
2023-05-05T20:30:44.564Z,38.30
2023-05-05T20:33:14.669Z,38.70
2023-05-05T20:35:44.795Z,38.45
2023-05-05T20:38:15.087Z,38.57
2023-05-05T20:40:45.242Z,38.59
2023-05-05T20:43:15.397Z,38.74
2023-05-05T20:45:45.554Z,38.85
2023-05-05T20:48:15.744Z,39.01
2023-05-05T20:50:46.092Z,38.92
2023-05-05T20:53:21.014Z,39.06
2023-05-05T20:55:51.418Z,39.03
2023-05-05T20:58:21.563Z,38.93
2023-05-05T21:00:51.769Z,38.88
2023-05-05T21:03:22.003Z,39.10
2023-05-05T21:05:52.195Z,39.14
2023-05-05T21:08:22.700Z,39.54
2023-05-05T21:10:52.815Z,39.47
2023-05-05T21:13:23.332Z,39.62
2023-05-05T21:15:53.510Z,39.52
2023-05-05T21:18:25.911Z,39.87
2023-05-05T21:21:02.785Z,39.60
2023-05-05T21:23:36.334Z,39.72
2023-05-05T21:26:10.802Z,39.78
2023-05-05T21:28:49.606Z,39.69
2023-05-05T21:31:24.225Z,39.80
2023-05-05T21:33:58.187Z,40.08
2023-05-05T21:36:34.055Z,39.99
2023-05-05T21:39:11.540Z,40.05
2023-05-05T21:41:47.509Z,39.93
2023-05-05T21:44:20.489Z,40.31
2023-05-05T21:46:55.665Z,40.56
2023-05-05T21:49:25.864Z,40.16
2023-05-05T21:51:59.018Z,40.31
2023-05-05T21:54:30.341Z,40.32
2023-05-05T21:57:03.887Z,40.33
2023-05-05T21:59:34.687Z,40.28
2023-05-05T22:02:04.996Z,40.42
2023-05-05T22:04:35.141Z,40.55
2023-05-05T22:07:05.318Z,40.39
2023-05-05T22:09:35.716Z,40.18
2023-05-05T22:12:06.060Z,40.57
2023-05-05T22:14:36.191Z,40.36
2023-05-05T22:17:06.434Z,40.23
2023-05-05T22:19:36.511Z,39.92
2023-05-05T22:22:07.170Z,40.24
2023-05-05T22:24:37.275Z,40.25
2023-05-05T22:27:07.385Z,39.79
2023-05-05T22:29:39.054Z,39.87
2023-05-05T22:32:09.118Z,39.79
2023-05-05T22:34:39.340Z,40.00
2023-05-05T22:37:09.656Z,39.70
2023-05-05T22:39:39.846Z,39.64
2023-05-05T22:42:10.140Z,39.86
2023-05-05T22:44:40.244Z,40.29
2023-05-05T22:47:10.611Z,39.78
2023-05-05T22:49:41.005Z,39.69
2023-05-05T22:52:11.287Z,40.14
2023-05-05T22:54:41.526Z,39.71
2023-05-05T22:57:12.134Z,39.78
2023-05-05T22:59:42.186Z,39.94
2023-05-05T23:02:12.396Z,39.77
2023-05-05T23:04:45.026Z,39.84
2023-05-05T23:07:15.708Z,39.80
2023-05-05T23:09:47.055Z,39.51
2023-05-05T23:12:17.754Z,39.52
2023-05-05T23:14:48.624Z,39.49
2023-05-05T23:17:18.782Z,39.61
2023-05-05T23:19:49.513Z,39.55
2023-05-05T23:22:19.613Z,39.49
2023-05-05T23:24:49.747Z,39.31
2023-05-05T23:27:19.946Z,39.32
2023-05-05T23:29:50.262Z,39.19
2023-05-05T23:32:20.751Z,39.04
2023-05-05T23:34:50.888Z,39.29
2023-05-05T23:37:21.831Z,39.07
2023-05-05T23:39:52.161Z,38.98
2023-05-05T23:42:22.389Z,39.06
2023-05-05T23:44:52.458Z,38.79
2023-05-05T23:47:22.670Z,38.69
2023-05-05T23:49:52.789Z,38.95
2023-05-05T23:52:22.908Z,39.08
2023-05-05T23:54:53.040Z,39.00
2023-05-05T23:57:23.152Z,39.02
2023-05-05T23:59:53.257Z,38.89
